APZ1012 RKPC-RKSS
Flight info
| Callsign | APZ1012 |
|---|---|
| Flight time | 0h 43m |
| Altitude | 25000 |
| Route | KAMIT2E KAMIT Y722 OLMEN OLMEN2T |
| Aircraft | B738/M-SDE2E3FGHIRWXY/LB1 |
Departure
| Time | 2025-09-10 08:33 |
|---|---|
| Airport | Jeju International Airport (RKPC) |
Arrival
| Time | 2025-09-10 09:16 |
|---|---|
| Airport | Gimpo International Airport (RKSS) |
| Time | Latitude | Longitude | Altitude | Speed | Heading |
|---|---|---|---|---|---|
| 2025-09-10 08:18 | 33.50779 | 126.49299 | 93 ft | 0 kts | 182° |
| 2025-09-10 08:22 | 33.50827 | 126.49301 | 92 ft | 3 kts | 182° |
| 2025-09-10 08:22 | 33.50866 | 126.49308 | 89 ft | 3 kts | 205° |
| 2025-09-10 08:23 | 33.50883 | 126.49320 | 91 ft | 3 kts | 221° |
| 2025-09-10 08:23 | 33.50906 | 126.49355 | 90 ft | 1 kts | 238° |
| 2025-09-10 08:24 | 33.50907 | 126.49357 | 90 ft | 0 kts | 238° |
| 2025-09-10 08:25 | 33.50889 | 126.49321 | 92 ft | 11 kts | 238° |
| 2025-09-10 08:26 | 33.50835 | 126.49215 | 90 ft | 17 kts | 238° |
| 2025-09-10 08:26 | 33.50717 | 126.48985 | 92 ft | 16 kts | 238° |
| 2025-09-10 08:27 | 33.50607 | 126.48774 | 92 ft | 14 kts | 238° |
| 2025-09-10 08:27 | 33.50546 | 126.48574 | 91 ft | 13 kts | 310° |
| 2025-09-10 08:28 | 33.50600 | 126.48410 | 91 ft | 15 kts | 239° |
| 2025-09-10 08:28 | 33.50455 | 126.48126 | 93 ft | 21 kts | 238° |
| 2025-09-10 08:29 | 33.50237 | 126.47699 | 93 ft | 19 kts | 237° |
| 2025-09-10 08:29 | 33.50167 | 126.47566 | 94 ft | 19 kts | 238° |
| 2025-09-10 08:30 | 33.50037 | 126.47311 | 96 ft | 17 kts | 238° |
| 2025-09-10 08:30 | 33.49915 | 126.47074 | 99 ft | 16 kts | 238° |
| 2025-09-10 08:31 | 33.49967 | 126.46884 | 98 ft | 15 kts | 343° |
| 2025-09-10 08:31 | 33.50150 | 126.47155 | 97 ft | 65 kts | 58° |
| 2025-09-10 08:32 | 33.51107 | 126.49034 | 577 ft | 167 kts | 59° |
| 2025-09-10 08:32 | 33.52401 | 126.51501 | 2600 ft | 170 kts | 58° |
| 2025-09-10 08:33 | 33.54976 | 126.54718 | 4456 ft | 206 kts | 43° |
| 2025-09-10 08:33 | 33.56104 | 126.55939 | 4663 ft | 231 kts | 43° |
| 2025-09-10 08:34 | 33.59292 | 126.57607 | 5305 ft | 274 kts | 13° |
| 2025-09-10 08:34 | 33.63067 | 126.58597 | 7231 ft | 282 kts | 12° |
| 2025-09-10 08:35 | 33.66967 | 126.59678 | 9023 ft | 294 kts | 12° |
| 2025-09-10 08:35 | 33.71017 | 126.60849 | 10606 ft | 311 kts | 12° |
| 2025-09-10 08:35 | 33.73215 | 126.61492 | 10823 ft | 339 kts | 12° |
| 2025-09-10 08:36 | 33.78145 | 126.62951 | 11195 ft | 389 kts | 12° |
| 2025-09-10 08:36 | 33.83597 | 126.64584 | 12134 ft | 411 kts | 12° |
| 2025-09-10 08:37 | 33.92016 | 126.67118 | 14122 ft | 422 kts | 12° |
| 2025-09-10 08:38 | 33.97757 | 126.68845 | 15216 ft | 428 kts | 12° |
| 2025-09-10 08:38 | 34.03578 | 126.70600 | 16251 ft | 434 kts | 11° |
| 2025-09-10 08:39 | 34.09485 | 126.72382 | 17208 ft | 440 kts | 11° |
| 2025-09-10 08:39 | 34.15468 | 126.74190 | 18084 ft | 446 kts | 11° |
| 2025-09-10 08:40 | 34.21535 | 126.76027 | 18832 ft | 452 kts | 11° |
| 2025-09-10 08:40 | 34.27699 | 126.77599 | 19482 ft | 453 kts | 2° |
| 2025-09-10 08:41 | 34.36094 | 126.78427 | 20320 ft | 458 kts | 0° |
| 2025-09-10 08:41 | 34.40709 | 126.78850 | 20730 ft | 461 kts | 1° |
| 2025-09-10 08:42 | 34.43918 | 126.79163 | 21018 ft | 463 kts | 1° |
| 2025-09-10 08:42 | 34.50327 | 126.79826 | 21556 ft | 467 kts | 1° |
| 2025-09-10 08:43 | 34.56830 | 126.80518 | 22058 ft | 471 kts | 1° |
| 2025-09-10 08:43 | 34.63385 | 126.81218 | 22545 ft | 474 kts | 1° |
| 2025-09-10 08:44 | 34.69974 | 126.81922 | 23007 ft | 476 kts | 1° |
| 2025-09-10 08:44 | 34.76585 | 126.82627 | 23460 ft | 478 kts | 1° |
| 2025-09-10 08:44 | 34.79908 | 126.82981 | 23620 ft | 480 kts | 1° |
| 2025-09-10 08:45 | 34.89882 | 126.84049 | 24296 ft | 478 kts | 1° |
| 2025-09-10 08:46 | 34.96494 | 126.84758 | 24727 ft | 477 kts | 1° |
| 2025-09-10 08:46 | 35.03121 | 126.85468 | 24929 ft | 480 kts | 1° |
| 2025-09-10 08:47 | 35.09811 | 126.86187 | 24952 ft | 485 kts | 1° |
| 2025-09-10 08:47 | 35.16555 | 126.86915 | 24947 ft | 488 kts | 1° |
| 2025-09-10 08:48 | 35.23337 | 126.87653 | 24943 ft | 489 kts | 1° |
| 2025-09-10 08:48 | 35.26726 | 126.88022 | 24946 ft | 490 kts | 1° |
| 2025-09-10 08:48 | 35.33515 | 126.88763 | 24948 ft | 490 kts | 1° |
| 2025-09-10 08:49 | 35.43685 | 126.89875 | 24955 ft | 489 kts | 1° |
| 2025-09-10 08:50 | 35.50410 | 126.90611 | 24952 ft | 488 kts | 0° |
| 2025-09-10 08:50 | 35.57208 | 126.91355 | 24953 ft | 487 kts | 0° |
| 2025-09-10 08:51 | 35.63900 | 126.92087 | 24953 ft | 485 kts | 0° |
| 2025-09-10 08:51 | 35.70620 | 126.92823 | 24955 ft | 484 kts | 0° |
| 2025-09-10 08:51 | 35.73969 | 126.93191 | 24954 ft | 483 kts | 0° |
| 2025-09-10 08:52 | 35.80664 | 126.93926 | 24955 ft | 483 kts | 0° |
| 2025-09-10 08:52 | 35.87356 | 126.94663 | 24959 ft | 482 kts | 0° |
| 2025-09-10 08:53 | 35.97378 | 126.95775 | 24957 ft | 482 kts | 0° |
| 2025-09-10 08:54 | 36.06135 | 126.96762 | 24840 ft | 455 kts | 0° |
| 2025-09-10 08:54 | 36.09234 | 126.97115 | 24729 ft | 440 kts | 0° |
| 2025-09-10 08:55 | 36.15161 | 126.97779 | 23913 ft | 427 kts | 0° |
| 2025-09-10 08:55 | 36.21049 | 126.98429 | 22758 ft | 422 kts | 1° |
| 2025-09-10 08:55 | 36.23965 | 126.98755 | 22237 ft | 418 kts | 1° |
| 2025-09-10 08:56 | 36.29693 | 126.99398 | 21208 ft | 410 kts | 2° |
| 2025-09-10 08:57 | 36.40888 | 127.00426 | 19316 ft | 392 kts | 356° |
| 2025-09-10 08:57 | 36.46150 | 127.00170 | 19065 ft | 368 kts | 355° |
| 2025-09-10 08:58 | 36.48690 | 127.00038 | 18692 ft | 365 kts | 356° |
| 2025-09-10 08:58 | 36.53765 | 126.99824 | 17759 ft | 364 kts | 357° |
| 2025-09-10 08:59 | 36.58789 | 126.99637 | 16919 ft | 358 kts | 357° |
| 2025-09-10 08:59 | 36.63738 | 126.99460 | 16075 ft | 354 kts | 357° |
| 2025-09-10 08:59 | 36.66192 | 126.99372 | 15667 ft | 352 kts | 358° |
| 2025-09-10 09:00 | 36.71061 | 126.99200 | 14909 ft | 347 kts | 359° |
| 2025-09-10 09:01 | 36.77359 | 127.03095 | 13700 ft | 346 kts | 41° |
| 2025-09-10 09:01 | 36.80817 | 127.07152 | 12908 ft | 341 kts | 42° |
| 2025-09-10 09:02 | 36.84245 | 127.11161 | 12167 ft | 335 kts | 42° |
| 2025-09-10 09:02 | 36.87634 | 127.15078 | 11445 ft | 329 kts | 42° |
| 2025-09-10 09:03 | 36.90935 | 127.18882 | 11044 ft | 313 kts | 42° |
| 2025-09-10 09:03 | 36.94025 | 127.22442 | 10884 ft | 292 kts | 42° |
| 2025-09-10 09:04 | 36.96962 | 127.25831 | 10384 ft | 285 kts | 42° |
| 2025-09-10 09:04 | 36.98605 | 127.27155 | 10052 ft | 284 kts | 16° |
| 2025-09-10 09:05 | 37.04332 | 127.25911 | 9059 ft | 285 kts | 343° |
| 2025-09-10 09:05 | 37.08024 | 127.24295 | 8720 ft | 272 kts | 343° |
| 2025-09-10 09:06 | 37.11505 | 127.22793 | 8455 ft | 260 kts | 343° |
| 2025-09-10 09:06 | 37.14920 | 127.21337 | 7878 ft | 259 kts | 343° |
| 2025-09-10 09:07 | 37.18341 | 127.19884 | 7356 ft | 259 kts | 344° |
| 2025-09-10 09:07 | 37.20042 | 127.19162 | 7092 ft | 258 kts | 344° |
| 2025-09-10 09:08 | 37.25044 | 127.16986 | 6503 ft | 259 kts | 335° |
| 2025-09-10 09:08 | 37.26458 | 127.15563 | 6368 ft | 263 kts | 316° |
| 2025-09-10 09:09 | 37.30365 | 127.10635 | 5809 ft | 265 kts | 317° |
| 2025-09-10 09:09 | 37.32950 | 127.07413 | 5396 ft | 258 kts | 317° |
| 2025-09-10 09:10 | 37.35467 | 127.04279 | 5035 ft | 256 kts | 317° |
| 2025-09-10 09:10 | 37.37977 | 127.01197 | 4682 ft | 248 kts | 319° |
| 2025-09-10 09:10 | 37.39256 | 126.99683 | 4227 ft | 257 kts | 318° |
| 2025-09-10 09:11 | 37.41822 | 126.96499 | 3544 ft | 261 kts | 316° |
| 2025-09-10 09:11 | 37.44325 | 126.93329 | 2875 ft | 249 kts | 316° |
| 2025-09-10 09:12 | 37.46721 | 126.90299 | 2250 ft | 237 kts | 316° |
| 2025-09-10 09:13 | 37.49887 | 126.86303 | 1400 ft | 192 kts | 316° |
| 2025-09-10 09:13 | 37.51622 | 126.84116 | 943 ft | 162 kts | 315° |
| 2025-09-10 09:14 | 37.53913 | 126.81223 | 297 ft | 153 kts | 315° |
| 2025-09-10 09:14 | 37.54656 | 126.80282 | 132 ft | 150 kts | 315° |
| 2025-09-10 09:15 | 37.55894 | 126.78731 | 61 ft | 74 kts | 315° |
| 2025-09-10 09:15 | 37.56309 | 126.78356 | 66 ft | 28 kts | 345° |
| 2025-09-10 09:16 | 37.56618 | 126.78519 | 62 ft | 22 kts | 45° |
| 2025-09-10 09:16 | 37.56523 | 126.78813 | 64 ft | 21 kts | 136° |
| 2025-09-10 09:17 | 37.56223 | 126.79187 | 63 ft | 19 kts | 135° |
| 2025-09-10 09:17 | 37.56039 | 126.79418 | 63 ft | 18 kts | 135° |
| 2025-09-10 09:18 | 37.55955 | 126.79532 | 65 ft | 17 kts | 120° |
| 2025-09-10 09:18 | 37.55911 | 126.79822 | 66 ft | 16 kts | 99° |
| 2025-09-10 09:19 | 37.55944 | 126.80045 | 57 ft | 8 kts | 45° |
| 2025-09-10 09:19 | 37.55965 | 126.80071 | 59 ft | 0 kts | 45° |